createdAt,value
2018-01-23T00:00:07.899Z,0
2018-01-23T00:01:17.008Z,0
2018-01-23T00:02:25.836Z,0
2018-01-23T00:03:34.666Z,0
2018-01-23T00:04:43.795Z,0
2018-01-23T00:05:52.629Z,0
2018-01-23T00:07:01.730Z,0
2018-01-23T00:08:10.560Z,0
2018-01-23T00:09:19.667Z,0
2018-01-23T00:10:28.496Z,0
2018-01-23T00:11:37.326Z,0
2018-01-23T00:12:46.432Z,0
2018-01-23T00:13:55.259Z,0
2018-01-23T00:15:04.091Z,0
2018-01-23T00:16:13.016Z,0
2018-01-23T00:17:21.847Z,0
2018-01-23T00:18:30.677Z,0
2018-01-23T00:19:39.507Z,0
2018-01-23T00:20:48.337Z,0
2018-01-23T00:21:57.467Z,0
2018-01-23T00:23:06.299Z,0
2018-01-23T00:24:15.130Z,0
2018-01-23T00:25:23.959Z,0
2018-01-23T00:26:32.788Z,0
2018-01-23T00:27:41.769Z,0
2018-01-23T00:28:50.602Z,0
2018-01-23T00:29:59.433Z,0
2018-01-23T00:31:08.262Z,0
2018-01-23T00:32:17.090Z,0
2018-01-23T00:33:25.972Z,0
2018-01-23T00:34:34.800Z,0
2018-01-23T00:35:43.631Z,0
2018-01-23T00:36:52.457Z,0
2018-01-23T00:38:01.288Z,0
2018-01-23T00:39:10.240Z,0
2018-01-23T00:40:19.067Z,0
2018-01-23T00:41:28.177Z,0
2018-01-23T00:42:37.010Z,0
2018-01-23T00:43:45.842Z,0
2018-01-23T00:44:54.921Z,0
2018-01-23T00:46:03.751Z,0
2018-01-23T00:47:12.857Z,0
2018-01-23T00:48:21.686Z,0
2018-01-23T00:49:30.513Z,0
2018-01-23T00:50:39.442Z,0
2018-01-23T00:51:48.278Z,0
2018-01-23T00:52:57.108Z,0
2018-01-23T00:54:05.938Z,0
2018-01-23T00:55:14.768Z,0
2018-01-23T00:56:23.696Z,0
2018-01-23T00:57:32.528Z,0
2018-01-23T00:58:41.357Z,0
2018-01-23T00:59:50.185Z,0
2018-01-23T01:00:59.016Z,0
2018-01-23T01:02:07.843Z,0
2018-01-23T01:03:16.675Z,0
2018-01-23T01:04:25.502Z,0
2018-01-23T01:05:34.329Z,0
2018-01-23T01:06:43.159Z,0
2018-01-23T01:07:52.041Z,0
2018-01-23T01:09:00.874Z,0
2018-01-23T01:10:09.701Z,0
2018-01-23T01:11:18.530Z,0
2018-01-23T01:12:27.360Z,0
2018-01-23T01:13:36.492Z,0
2018-01-23T01:14:45.319Z,0
2018-01-23T01:15:54.150Z,0
2018-01-23T01:17:02.979Z,0
2018-01-23T01:18:11.814Z,0
2018-01-23T01:19:20.639Z,0
2018-01-23T01:20:29.468Z,0
2018-01-23T01:21:38.298Z,0
2018-01-23T01:22:47.129Z,0
2018-01-23T01:23:55.956Z,0
2018-01-23T01:25:04.939Z,0
2018-01-23T01:26:13.767Z,0
2018-01-23T01:27:22.598Z,0
2018-01-23T01:28:31.698Z,0
2018-01-23T01:29:40.530Z,0
2018-01-23T01:30:49.361Z,0
2018-01-23T01:31:58.193Z,0
2018-01-23T01:33:07.023Z,0
2018-01-23T01:34:15.851Z,0
2018-01-23T01:35:24.683Z,0
2018-01-23T01:36:33.513Z,0
2018-01-23T01:37:42.617Z,0
2018-01-23T01:38:51.447Z,0
2018-01-23T01:40:00.277Z,0
2018-01-23T01:41:09.106Z,0
2018-01-23T01:42:18.088Z,0
2018-01-23T01:43:26.917Z,0
2018-01-23T01:44:35.743Z,0
2018-01-23T01:45:44.851Z,0
2018-01-23T01:46:53.679Z,0
2018-01-23T01:48:02.607Z,0
2018-01-23T01:49:11.438Z,0
2018-01-23T01:50:20.267Z,0
2018-01-23T01:51:29.095Z,0
2018-01-23T01:52:37.927Z,0
2018-01-23T01:53:47.156Z,0
2018-01-23T01:54:56.259Z,0
2018-01-23T01:56:05.089Z,0
2018-01-23T01:57:13.919Z,0
2018-01-23T01:58:22.750Z,0
2018-01-23T01:59:31.878Z,0
2018-01-23T02:00:40.709Z,0
2018-01-23T02:01:49.807Z,0
2018-01-23T02:02:58.635Z,0
2018-01-23T02:04:07.466Z,0
2018-01-23T02:05:16.548Z,0
2018-01-23T02:06:25.376Z,0
2018-01-23T02:07:34.204Z,0
2018-01-23T02:08:43.035Z,0
2018-01-23T02:09:51.869Z,0
2018-01-23T02:11:01.370Z,0
2018-01-23T02:12:10.200Z,0
2018-01-23T02:13:19.030Z,0
2018-01-23T02:14:27.859Z,0
2018-01-23T02:15:36.686Z,0
2018-01-23T02:16:45.666Z,0
2018-01-23T02:17:54.493Z,0
2018-01-23T02:19:03.598Z,0
2018-01-23T02:20:12.427Z,0
2018-01-23T02:21:21.256Z,0
2018-01-23T02:22:30.086Z,0
2018-01-23T02:23:38.916Z,0
2018-01-23T02:24:47.744Z,0
2018-01-23T02:25:56.575Z,0
2018-01-23T02:27:05.405Z,0
2018-01-23T02:28:14.483Z,0
2018-01-23T02:29:23.314Z,0
2018-01-23T02:30:32.143Z,0
2018-01-23T02:31:40.972Z,0
2018-01-23T02:32:49.799Z,0
2018-01-23T02:33:59.200Z,0
2018-01-23T02:35:08.025Z,0
2018-01-23T02:36:16.857Z,0
2018-01-23T02:37:25.690Z,0
2018-01-23T02:38:34.621Z,0
2018-01-23T02:39:43.601Z,0
2018-01-23T02:40:52.430Z,0
2018-01-23T02:42:01.555Z,0
2018-01-23T02:43:10.432Z,0
2018-01-23T02:44:19.262Z,0
2018-01-23T02:45:28.093Z,0
2018-01-23T02:46:37.200Z,0
2018-01-23T02:47:46.028Z,0
2018-01-23T02:48:54.857Z,0
2018-01-23T02:50:03.688Z,0
2018-01-23T02:51:12.517Z,0
2018-01-23T02:52:21.343Z,0
2018-01-23T02:53:30.455Z,0
2018-01-23T02:54:39.284Z,0
2018-01-23T02:55:48.123Z,0
2018-01-23T02:56:57.051Z,0
2018-01-23T02:58:05.885Z,0
2018-01-23T02:59:14.988Z,0
2018-01-23T03:00:23.819Z,0
2018-01-23T03:01:32.646Z,0
2018-01-23T03:02:41.525Z,0
2018-01-23T03:03:50.356Z,0
2018-01-23T03:04:59.187Z,0
2018-01-23T03:06:08.018Z,0
2018-01-23T03:07:16.898Z,0
2018-01-23T03:08:26.047Z,0
2018-01-23T03:09:34.877Z,0
2018-01-23T03:10:43.707Z,0
2018-01-23T03:11:52.535Z,0
2018-01-23T03:13:01.365Z,0
2018-01-23T03:14:10.195Z,0
2018-01-23T03:15:19.026Z,0
2018-01-23T03:16:27.855Z,0
2018-01-23T03:17:36.686Z,0
2018-01-23T03:18:45.515Z,0
2018-01-23T03:19:54.344Z,0
2018-01-23T03:21:03.174Z,0
2018-01-23T03:22:12.005Z,0
2018-01-23T03:23:21.112Z,0
2018-01-23T03:24:29.943Z,0
2018-01-23T03:25:38.773Z,0
2018-01-23T03:26:47.874Z,0
2018-01-23T03:27:56.703Z,0
2018-01-23T03:29:05.807Z,0
2018-01-23T03:30:14.919Z,0
2018-01-23T03:31:23.900Z,0
2018-01-23T03:32:32.731Z,0
2018-01-23T03:33:41.559Z,0
2018-01-23T03:34:50.388Z,0
2018-01-23T03:35:59.267Z,0
2018-01-23T03:37:08.620Z,0
2018-01-23T03:38:17.450Z,0
2018-01-23T03:39:26.281Z,0
2018-01-23T03:40:35.109Z,0
2018-01-23T03:41:44.216Z,0
2018-01-23T03:42:53.191Z,0
2018-01-23T03:44:02.020Z,0
2018-01-23T03:45:10.854Z,0
2018-01-23T03:46:19.679Z,0
2018-01-23T03:47:28.508Z,0
2018-01-23T03:48:37.634Z,0
2018-01-23T03:49:46.465Z,0
2018-01-23T03:50:55.295Z,0
2018-01-23T03:52:04.126Z,0
2018-01-23T03:53:13.003Z,0
2018-01-23T03:54:21.883Z,0
2018-01-23T03:55:30.713Z,0
2018-01-23T03:56:39.543Z,0
2018-01-23T03:57:48.372Z,0
2018-01-23T03:58:57.200Z,0
2018-01-23T04:00:06.128Z,0
2018-01-23T04:01:14.957Z,0
2018-01-23T04:02:24.059Z,0
2018-01-23T04:03:32.889Z,0
2018-01-23T04:04:41.718Z,0
2018-01-23T04:05:50.824Z,0
2018-01-23T04:06:59.653Z,0
2018-01-23T04:08:08.479Z,0
2018-01-23T04:09:17.310Z,0
2018-01-23T04:10:26.140Z,0
2018-01-23T04:11:35.117Z,0
2018-01-23T04:12:43.949Z,0
2018-01-23T04:13:52.780Z,0
2018-01-23T04:15:01.888Z,0
2018-01-23T04:16:10.712Z,0
2018-01-23T04:17:19.691Z,0
2018-01-23T04:18:28.520Z,0
2018-01-23T04:19:37.351Z,0
2018-01-23T04:20:46.182Z,0
2018-01-23T04:21:55.011Z,0
2018-01-23T04:23:03.839Z,0
2018-01-23T04:24:12.669Z,0
2018-01-23T04:25:21.497Z,0
2018-01-23T04:26:30.327Z,0
2018-01-23T04:27:39.158Z,0
2018-01-23T04:28:48.372Z,0
2018-01-23T04:29:57.474Z,0
2018-01-23T04:31:06.303Z,0
2018-01-23T04:32:15.134Z,0
2018-01-23T04:33:23.964Z,0
2018-01-23T04:34:32.892Z,0
2018-01-23T04:35:41.720Z,0
2018-01-23T04:36:50.553Z,0
2018-01-23T04:37:59.382Z,0
2018-01-23T04:39:08.214Z,0
2018-01-23T04:40:17.192Z,0
2018-01-23T04:41:26.021Z,0
2018-01-23T04:42:34.852Z,0
2018-01-23T04:43:43.681Z,0
2018-01-23T04:44:52.511Z,0
2018-01-23T04:46:01.548Z,0
2018-01-23T04:47:10.381Z,0
2018-01-23T04:48:19.483Z,0
2018-01-23T04:49:28.313Z,0
2018-01-23T04:50:37.141Z,0
2018-01-23T04:51:46.271Z,0
2018-01-23T04:52:55.099Z,0
2018-01-23T04:54:03.927Z,0
2018-01-23T04:55:12.756Z,0
2018-01-23T04:56:21.584Z,0
2018-01-23T04:57:30.415Z,0
2018-01-23T04:58:39.242Z,0
2018-01-23T04:59:48.074Z,0
2018-01-23T05:00:56.904Z,0
2018-01-23T05:02:05.735Z,0
2018-01-23T05:03:14.563Z,0
2018-01-23T05:04:23.392Z,0
2018-01-23T05:05:32.221Z,0
2018-01-23T05:06:41.050Z,0
2018-01-23T05:07:49.881Z,0
2018-01-23T05:08:59.116Z,0
2018-01-23T05:10:07.946Z,0
2018-01-23T05:11:16.777Z,0
2018-01-23T05:12:25.882Z,0
2018-01-23T05:13:34.713Z,0
2018-01-23T05:14:43.702Z,0
2018-01-23T05:15:52.528Z,0
2018-01-23T05:17:01.356Z,0
2018-01-23T05:18:10.187Z,0
2018-01-23T05:19:19.018Z,0
2018-01-23T05:20:28.150Z,0
2018-01-23T05:21:36.980Z,0
2018-01-23T05:22:46.081Z,0
2018-01-23T05:23:54.912Z,0
2018-01-23T05:25:03.744Z,0
2018-01-23T05:26:12.671Z,0
2018-01-23T05:27:21.501Z,0
2018-01-23T05:28:30.603Z,0
2018-01-23T05:29:39.433Z,0
2018-01-23T05:30:48.260Z,0
2018-01-23T05:31:57.346Z,0
2018-01-23T05:33:06.448Z,0
2018-01-23T05:34:15.278Z,0
2018-01-23T05:35:24.108Z,0
2018-01-23T05:36:32.940Z,0
2018-01-23T05:37:41.818Z,0
2018-01-23T05:38:50.648Z,0
2018-01-23T05:39:59.480Z,0
2018-01-23T05:41:08.311Z,0
2018-01-23T05:42:17.413Z,0
2018-01-23T05:43:26.344Z,0
2018-01-23T05:44:35.173Z,0
2018-01-23T05:45:44.002Z,0
2018-01-23T05:46:52.831Z,0
2018-01-23T05:48:01.661Z,0
2018-01-23T05:49:10.591Z,0
2018-01-23T05:50:19.422Z,0
2018-01-23T05:51:28.254Z,0
2018-01-23T05:52:37.082Z,0
2018-01-23T05:53:45.912Z,0
2018-01-23T05:54:54.891Z,0
2018-01-23T05:56:03.722Z,0
2018-01-23T05:57:12.551Z,0
2018-01-23T05:58:21.651Z,0
2018-01-23T05:59:30.484Z,0
2018-01-23T06:00:39.363Z,0
2018-01-23T06:01:48.190Z,0
2018-01-23T06:02:57.018Z,0
2018-01-23T06:04:05.847Z,0
2018-01-23T06:05:14.678Z,0
2018-01-23T06:06:23.556Z,0
2018-01-23T06:07:32.384Z,0
2018-01-23T06:08:41.213Z,0
2018-01-23T06:09:50.041Z,0
2018-01-23T06:10:58.872Z,0
2018-01-23T06:12:07.802Z,0
2018-01-23T06:13:16.634Z,0
2018-01-23T06:14:25.463Z,0
2018-01-23T06:15:34.293Z,0
2018-01-23T06:16:43.124Z,0
2018-01-23T06:17:52.054Z,0
2018-01-23T06:19:00.884Z,0
2018-01-23T06:20:09.984Z,0
2018-01-23T06:21:18.815Z,0
2018-01-23T06:22:27.646Z,0
2018-01-23T06:23:36.528Z,0
2018-01-23T06:24:45.358Z,0
2018-01-23T06:25:54.188Z,0
2018-01-23T06:27:03.018Z,0
2018-01-23T06:28:11.848Z,0
2018-01-23T06:29:20.964Z,0
2018-01-23T06:30:30.074Z,0
2018-01-23T06:31:38.906Z,0
2018-01-23T06:32:47.735Z,0
2018-01-23T06:33:56.563Z,0
2018-01-23T06:35:05.396Z,0
2018-01-23T06:36:14.230Z,0
2018-01-23T06:37:23.614Z,0
2018-01-23T06:38:32.436Z,0
2018-01-23T06:39:41.267Z,0
2018-01-23T06:40:50.098Z,0
2018-01-23T06:41:58.930Z,0
2018-01-23T06:43:07.759Z,0
2018-01-23T06:44:16.586Z,0
2018-01-23T06:45:25.417Z,0
2018-01-23T06:46:34.248Z,0
2018-01-23T06:47:43.080Z,0
2018-01-23T06:48:52.185Z,0
2018-01-23T06:50:01.017Z,0
2018-01-23T06:51:09.850Z,0
2018-01-23T06:52:18.725Z,0
2018-01-23T06:53:27.508Z,0
2018-01-23T06:54:36.340Z,0
2018-01-23T06:55:45.170Z,0
2018-01-23T06:56:54.001Z,0
2018-01-23T06:58:02.828Z,0
2018-01-23T06:59:11.657Z,0
2018-01-23T07:00:20.488Z,0
2018-01-23T07:01:29.316Z,0
2018-01-23T07:02:38.145Z,0
2018-01-23T07:03:46.974Z,0
2018-01-23T07:04:56.211Z,0
2018-01-23T07:06:05.035Z,0
2018-01-23T07:07:13.867Z,0
2018-01-23T07:08:22.722Z,0
2018-01-23T07:09:31.530Z,0
2018-01-23T07:10:40.933Z,0
2018-01-23T07:11:49.761Z,0
2018-01-23T07:12:58.871Z,0
2018-01-23T07:14:07.699Z,0
2018-01-23T07:15:16.531Z,0
2018-01-23T07:16:25.460Z,0
2018-01-23T07:17:34.288Z,0
2018-01-23T07:18:43.117Z,0
2018-01-23T07:19:51.947Z,0
2018-01-23T07:21:00.781Z,0
2018-01-23T07:22:09.759Z,0
2018-01-23T07:23:18.588Z,5
2018-01-23T07:24:27.418Z,5
2018-01-23T07:25:36.248Z,5
2018-01-23T07:26:45.350Z,5
2018-01-23T07:27:54.483Z,5
2018-01-23T07:29:03.316Z,5
2018-01-23T07:30:12.153Z,5
2018-01-23T07:31:20.979Z,10
2018-01-23T07:32:29.810Z,10
2018-01-23T07:33:38.691Z,10
2018-01-23T07:34:47.522Z,10
2018-01-23T07:35:56.352Z,15
2018-01-23T07:37:05.186Z,15
2018-01-23T07:38:14.288Z,15
2018-01-23T07:39:23.220Z,15
2018-01-23T07:40:32.055Z,15
2018-01-23T07:41:40.886Z,15
2018-01-23T07:42:49.714Z,15
2018-01-23T07:43:58.543Z,15
2018-01-23T07:45:07.773Z,15
2018-01-23T07:46:16.883Z,15
2018-01-23T07:47:25.710Z,15
2018-01-23T07:48:34.540Z,15
2018-01-23T07:49:43.371Z,15
2018-01-23T07:50:52.303Z,15
2018-01-23T07:52:01.132Z,15
2018-01-23T07:53:09.959Z,20
2018-01-23T07:54:18.789Z,20
2018-01-23T07:55:27.622Z,20
2018-01-23T07:56:36.452Z,25
2018-01-23T07:57:45.283Z,25
2018-01-23T07:58:54.114Z,25
2018-01-23T08:00:02.948Z,25
2018-01-23T08:01:11.773Z,25
2018-01-23T08:02:20.904Z,35
2018-01-23T08:03:29.733Z,35
2018-01-23T08:04:38.842Z,40
2018-01-23T08:05:47.667Z,35
2018-01-23T08:06:56.500Z,35
2018-01-23T08:08:05.883Z,45
2018-01-23T08:09:14.713Z,45
2018-01-23T08:10:23.868Z,50
2018-01-23T08:11:32.700Z,55
2018-01-23T08:12:41.528Z,50
2018-01-23T08:13:50.357Z,50
2018-01-23T08:14:59.188Z,50
2018-01-23T08:16:08.018Z,50
2018-01-23T08:17:16.849Z,60
2018-01-23T08:18:25.678Z,60
2018-01-23T08:19:34.666Z,70
2018-01-23T08:20:43.495Z,75
2018-01-23T08:21:52.324Z,75
2018-01-23T08:23:01.198Z,70
2018-01-23T08:24:09.987Z,65
2018-01-23T08:25:19.119Z,65
2018-01-23T08:26:27.950Z,60
2018-01-23T08:27:36.778Z,60
2018-01-23T08:28:45.885Z,65
2018-01-23T08:29:54.718Z,70
2018-01-23T08:31:03.652Z,75
2018-01-23T08:32:12.485Z,80
2018-01-23T08:33:21.316Z,80
2018-01-23T08:34:30.148Z,85
2018-01-23T08:35:38.977Z,85
2018-01-23T08:36:47.805Z,90
2018-01-23T08:37:56.637Z,95
2018-01-23T08:39:05.471Z,95
2018-01-23T08:40:14.302Z,95
2018-01-23T08:41:23.133Z,100
2018-01-23T08:42:32.016Z,100
2018-01-23T08:43:40.848Z,100
2018-01-23T08:44:49.679Z,90
2018-01-23T08:45:58.507Z,85
2018-01-23T08:47:07.615Z,100
2018-01-23T08:48:16.697Z,100
2018-01-23T08:49:25.530Z,95
2018-01-23T08:50:34.637Z,105
2018-01-23T08:51:43.469Z,110
2018-01-23T08:52:52.300Z,110
2018-01-23T08:54:01.133Z,105
2018-01-23T08:55:09.965Z,110
2018-01-23T08:56:18.798Z,115
2018-01-23T08:57:27.628Z,110
2018-01-23T08:58:36.459Z,105
2018-01-23T08:59:45.391Z,105
2018-01-23T09:00:54.226Z,105
2018-01-23T09:02:03.054Z,100
2018-01-23T09:03:11.885Z,90
2018-01-23T09:04:20.717Z,90
2018-01-23T09:05:29.697Z,90
2018-01-23T09:06:38.526Z,90
2018-01-23T09:07:47.358Z,85
2018-01-23T09:08:56.191Z,95
2018-01-23T09:10:05.023Z,125
2018-01-23T09:11:13.855Z,120
2018-01-23T09:12:22.685Z,110
2018-01-23T09:13:31.518Z,125
2018-01-23T09:14:40.349Z,130
2018-01-23T09:15:49.177Z,125
2018-01-23T09:16:58.109Z,135
2018-01-23T09:18:06.966Z,140
2018-01-23T09:19:15.777Z,145
2018-01-23T09:20:24.609Z,140
2018-01-23T09:21:33.442Z,155
2018-01-23T09:22:42.321Z,155
2018-01-23T09:23:51.153Z,155
2018-01-23T09:24:59.983Z,170
2018-01-23T09:26:08.813Z,170
2018-01-23T09:27:17.644Z,160
2018-01-23T09:28:26.475Z,175
2018-01-23T09:29:35.305Z,170
2018-01-23T09:30:44.135Z,175
2018-01-23T09:31:52.966Z,175
2018-01-23T09:33:01.800Z,180
2018-01-23T09:34:10.931Z,180
2018-01-23T09:35:19.765Z,185
2018-01-23T09:36:28.597Z,190
2018-01-23T09:37:37.430Z,190
2018-01-23T09:38:46.463Z,190
2018-01-23T09:39:55.545Z,190
2018-01-23T09:41:04.379Z,190
2018-01-23T09:42:13.212Z,195
2018-01-23T09:43:22.043Z,195
2018-01-23T09:44:30.874Z,195
2018-01-23T09:45:39.708Z,195
2018-01-23T09:46:48.540Z,205
2018-01-23T09:47:57.373Z,210
2018-01-23T09:49:06.204Z,225
2018-01-23T09:50:15.034Z,230
2018-01-23T09:51:23.866Z,235
2018-01-23T09:52:32.696Z,245
2018-01-23T09:53:41.802Z,255
2018-01-23T09:54:50.634Z,250
2018-01-23T09:55:59.739Z,255
2018-01-23T09:57:08.872Z,245
2018-01-23T09:58:17.704Z,250
2018-01-23T09:59:26.539Z,245
2018-01-23T10:00:35.372Z,240
2018-01-23T10:01:44.207Z,235
2018-01-23T10:02:53.412Z,230
2018-01-23T10:04:02.246Z,230
2018-01-23T10:05:11.079Z,230
2018-01-23T10:06:19.910Z,230
2018-01-23T10:07:28.741Z,230
2018-01-23T10:08:37.822Z,230
2018-01-23T10:09:46.655Z,235
2018-01-23T10:10:55.487Z,240
2018-01-23T10:12:04.595Z,240
2018-01-23T10:13:13.426Z,240
2018-01-23T10:14:22.540Z,245
2018-01-23T10:15:31.641Z,250
2018-01-23T10:16:40.482Z,255
2018-01-23T10:17:49.309Z,270
2018-01-23T10:18:58.415Z,265
2018-01-23T10:20:07.448Z,255
2018-01-23T10:21:16.281Z,245
2018-01-23T10:22:25.114Z,250
2018-01-23T10:23:33.948Z,245
2018-01-23T10:24:42.778Z,245
2018-01-23T10:25:51.661Z,240
2018-01-23T10:27:00.493Z,240
2018-01-23T10:28:09.326Z,240
2018-01-23T10:29:18.155Z,245
2018-01-23T10:30:26.987Z,245
2018-01-23T10:31:35.918Z,240
2018-01-23T10:32:44.750Z,235
2018-01-23T10:33:53.583Z,225
2018-01-23T10:35:02.419Z,215
2018-01-23T10:36:11.250Z,210
2018-01-23T10:37:20.083Z,215
2018-01-23T10:38:28.916Z,225
2018-01-23T10:39:37.749Z,245
2018-01-23T10:40:46.589Z,235
2018-01-23T10:41:56.240Z,210
2018-01-23T10:43:05.172Z,205
2018-01-23T10:44:14.004Z,210
2018-01-23T10:45:22.837Z,215
2018-01-23T10:46:31.669Z,210
2018-01-23T10:47:40.501Z,205
2018-01-23T10:48:49.632Z,205
2018-01-23T10:49:58.465Z,200
2018-01-23T10:51:07.296Z,215
2018-01-23T10:52:16.129Z,225
2018-01-23T10:53:24.961Z,210
2018-01-23T10:54:34.244Z,200
2018-01-23T10:55:43.021Z,195
2018-01-23T10:56:51.853Z,190
2018-01-23T10:58:00.685Z,180
2018-01-23T10:59:09.518Z,170
2018-01-23T11:00:18.402Z,155
2018-01-23T11:01:27.231Z,155
2018-01-23T11:02:36.063Z,165
2018-01-23T11:03:44.894Z,160
2018-01-23T11:04:53.725Z,165
2018-01-23T11:06:02.814Z,175
2018-01-23T11:07:11.645Z,190
2018-01-23T11:08:20.475Z,200
2018-01-23T11:09:29.311Z,200
2018-01-23T11:10:38.142Z,230
2018-01-23T11:11:47.023Z,255
2018-01-23T11:12:55.855Z,265
2018-01-23T11:14:04.689Z,265
2018-01-23T11:15:13.519Z,255
2018-01-23T11:16:22.351Z,265
2018-01-23T11:17:31.183Z,275
2018-01-23T11:18:40.015Z,280
2018-01-23T11:19:48.843Z,270
2018-01-23T11:20:57.677Z,260
2018-01-23T11:22:06.506Z,260
2018-01-23T11:23:15.591Z,270
2018-01-23T11:24:24.423Z,270
2018-01-23T11:25:33.255Z,270
2018-01-23T11:26:42.088Z,275
2018-01-23T11:27:50.920Z,275
2018-01-23T11:28:59.851Z,270
2018-01-23T11:30:08.686Z,270
2018-01-23T11:31:17.519Z,285
2018-01-23T11:32:26.350Z,280
2018-01-23T11:33:35.184Z,255
2018-01-23T11:34:44.267Z,250
2018-01-23T11:35:53.101Z,255
2018-01-23T11:37:01.935Z,240
2018-01-23T11:38:10.768Z,245
2018-01-23T11:39:19.603Z,255
2018-01-23T11:40:28.486Z,265
2018-01-23T11:41:37.321Z,265
2018-01-23T11:42:46.163Z,255
2018-01-23T11:43:55.551Z,255
2018-01-23T11:45:04.389Z,270
2018-01-23T11:46:13.325Z,270
2018-01-23T11:47:22.205Z,255
2018-01-23T11:48:31.040Z,250
2018-01-23T11:49:39.872Z,250
2018-01-23T11:50:48.981Z,250
2018-01-23T11:51:57.914Z,260
2018-01-23T11:53:06.774Z,260
2018-01-23T11:54:15.897Z,270
2018-01-23T11:55:24.749Z,280
2018-01-23T11:56:33.790Z,285
2018-01-23T11:57:42.909Z,285
2018-01-23T11:58:52.054Z,270
2018-01-23T12:00:01.375Z,275
2018-01-23T12:01:10.309Z,270
2018-01-23T12:02:19.581Z,250
2018-01-23T12:03:29.280Z,225
2018-01-23T12:04:38.426Z,220
2018-01-23T12:05:47.480Z,245
2018-01-23T12:06:56.648Z,265
2018-01-23T12:08:05.991Z,265
2018-01-23T12:09:15.027Z,240
2018-01-23T12:10:24.283Z,220
2018-01-23T12:11:33.382Z,205
2018-01-23T12:12:42.504Z,195
2018-01-23T12:13:51.338Z,170
2018-01-23T12:15:00.173Z,175
2018-01-23T12:16:09.064Z,200
2018-01-23T12:17:18.100Z,210
2018-01-23T12:18:26.947Z,200
2018-01-23T12:19:36.014Z,200
2018-01-23T12:21:14.667Z,180
2018-01-23T12:22:24.076Z,185
2018-01-23T12:23:33.060Z,190
2018-01-23T12:24:41.892Z,160
2018-01-23T12:25:50.883Z,140
2018-01-23T12:27:00.028Z,145
2018-01-23T12:28:08.971Z,165
2018-01-23T12:29:18.287Z,185
2018-01-23T12:30:27.473Z,185
2018-01-23T12:31:36.758Z,185
2018-01-23T12:32:45.821Z,175
2018-01-23T12:33:54.661Z,165
2018-01-23T12:35:04.276Z,160
2018-01-23T12:36:13.319Z,160
2018-01-23T12:37:22.672Z,165
2018-01-23T12:38:31.526Z,160
2018-01-23T12:39:40.361Z,160
2018-01-23T12:40:49.234Z,170
2018-01-23T12:41:58.091Z,180
2018-01-23T12:43:07.432Z,185
2018-01-23T12:44:16.264Z,185
2018-01-23T12:45:25.100Z,195
2018-01-23T12:46:33.932Z,205
2018-01-23T12:47:42.765Z,200
2018-01-23T12:48:51.649Z,200
2018-01-23T12:50:00.483Z,210
2018-01-23T12:51:09.316Z,200
2018-01-23T12:52:18.426Z,205
2018-01-23T12:53:27.258Z,215
2018-01-23T12:54:36.154Z,195
2018-01-23T12:55:45.276Z,155
2018-01-23T12:56:54.109Z,125
2018-01-23T12:58:03.231Z,120
2018-01-23T12:59:12.399Z,125
2018-01-23T13:00:21.333Z,135
2018-01-23T13:01:30.165Z,145
2018-01-23T13:02:39.685Z,150
2018-01-23T13:03:48.538Z,145
2018-01-23T13:04:57.371Z,135
2018-01-23T13:06:06.408Z,135
2018-01-23T13:07:15.240Z,130
2018-01-23T13:08:24.349Z,135
2018-01-23T13:09:33.182Z,145
2018-01-23T13:10:42.572Z,160
2018-01-23T13:11:51.457Z,170
2018-01-23T13:13:00.290Z,180
2018-01-23T13:14:09.123Z,180
2018-01-23T13:15:17.963Z,160
2018-01-23T13:16:27.065Z,155
2018-01-23T13:17:36.196Z,155
2018-01-23T13:18:45.029Z,160
2018-01-23T13:19:54.134Z,175
2018-01-23T13:21:02.968Z,175
2018-01-23T13:22:11.799Z,190
2018-01-23T13:23:20.733Z,185
2018-01-23T13:24:29.567Z,175
2018-01-23T13:25:38.401Z,190
2018-01-23T13:26:47.234Z,210
2018-01-23T13:27:56.069Z,185
2018-01-23T13:29:04.951Z,175
2018-01-23T13:30:13.785Z,170
2018-01-23T13:31:22.617Z,155
2018-01-23T13:32:31.450Z,150
2018-01-23T13:33:40.284Z,150
2018-01-23T13:34:49.442Z,145
2018-01-23T13:35:58.275Z,140
2018-01-23T13:37:07.111Z,125
2018-01-23T13:38:15.948Z,115
2018-01-23T13:39:25.050Z,105
2018-01-23T13:40:33.985Z,110
2018-01-23T13:41:42.817Z,115
2018-01-23T13:42:51.650Z,110
2018-01-23T13:44:00.484Z,110
2018-01-23T13:45:09.317Z,105
2018-01-23T13:46:18.200Z,100
2018-01-23T13:47:27.033Z,100
2018-01-23T13:48:35.881Z,110
2018-01-23T13:49:44.708Z,115
2018-01-23T13:50:53.538Z,115
2018-01-23T13:52:02.530Z,115
2018-01-23T13:53:11.362Z,110
2018-01-23T13:54:20.195Z,110
2018-01-23T13:55:29.027Z,115
2018-01-23T13:56:37.859Z,115
2018-01-23T13:57:47.245Z,120
2018-01-23T13:58:56.081Z,120
2018-01-23T14:00:05.187Z,120
2018-01-23T14:01:14.346Z,120
2018-01-23T14:02:23.178Z,110
2018-01-23T14:03:32.062Z,120
2018-01-23T14:04:40.893Z,125
2018-01-23T14:05:49.727Z,120
2018-01-23T14:06:58.560Z,125
2018-01-23T14:08:07.392Z,125
2018-01-23T14:09:16.378Z,120
2018-01-23T14:10:25.215Z,110
2018-01-23T14:11:34.321Z,105
2018-01-23T14:12:43.152Z,110
2018-01-23T14:13:51.983Z,115
2018-01-23T14:15:00.868Z,115
2018-01-23T14:16:09.700Z,115
2018-01-23T14:17:18.909Z,115
2018-01-23T14:18:28.022Z,105
2018-01-23T14:19:36.857Z,105
2018-01-23T14:20:45.687Z,115
2018-01-23T14:21:54.522Z,110
2018-01-23T14:23:03.351Z,95
2018-01-23T14:24:12.186Z,95
2018-01-23T14:25:21.016Z,100
2018-01-23T14:26:30.272Z,100
2018-01-23T14:27:39.104Z,95
2018-01-23T14:28:47.937Z,95
2018-01-23T14:29:56.771Z,90
2018-01-23T14:31:05.602Z,85
2018-01-23T14:32:14.534Z,85
2018-01-23T14:33:23.365Z,80
2018-01-23T14:34:32.196Z,75
2018-01-23T14:35:41.029Z,70
2018-01-23T14:36:49.863Z,70
2018-01-23T14:37:58.747Z,75
2018-01-23T14:39:07.580Z,85
2018-01-23T14:40:16.414Z,85
2018-01-23T14:41:25.248Z,95
2018-01-23T14:42:34.082Z,95
2018-01-23T14:43:42.966Z,95
2018-01-23T14:44:51.797Z,90
2018-01-23T14:46:00.629Z,90
2018-01-23T14:47:09.462Z,95
2018-01-23T14:48:18.298Z,90
2018-01-23T14:49:27.177Z,90
2018-01-23T14:50:36.011Z,90
2018-01-23T14:51:44.842Z,90
2018-01-23T14:52:53.673Z,90
2018-01-23T14:54:02.502Z,90
2018-01-23T14:55:11.584Z,90
2018-01-23T14:56:20.419Z,85
2018-01-23T14:57:29.250Z,80
2018-01-23T14:58:38.084Z,85
2018-01-23T14:59:46.932Z,80
2018-01-23T15:00:55.908Z,75
2018-01-23T15:02:04.742Z,65
2018-01-23T15:03:13.575Z,65
2018-01-23T15:04:22.406Z,65
2018-01-23T15:05:31.239Z,65
2018-01-23T15:06:40.371Z,60
2018-01-23T15:07:49.208Z,60
2018-01-23T15:08:58.034Z,55
2018-01-23T15:10:06.866Z,50
2018-01-23T15:11:15.704Z,45
2018-01-23T15:12:24.534Z,45
2018-01-23T15:13:33.365Z,40
2018-01-23T15:14:42.200Z,35
2018-01-23T15:15:51.031Z,35
2018-01-23T15:16:59.863Z,35
2018-01-23T15:18:08.695Z,30
2018-01-23T15:19:17.528Z,30
2018-01-23T15:20:26.363Z,30
2018-01-23T15:21:35.199Z,25
2018-01-23T15:22:44.305Z,25
2018-01-23T15:23:53.238Z,25
2018-01-23T15:25:02.070Z,20
2018-01-23T15:26:10.910Z,20
2018-01-23T15:27:19.741Z,20
2018-01-23T15:28:28.572Z,20
2018-01-23T15:29:37.455Z,20
2018-01-23T15:30:46.286Z,20
2018-01-23T15:31:55.118Z,20
2018-01-23T15:33:03.952Z,15
2018-01-23T15:34:12.784Z,15
2018-01-23T15:35:21.958Z,15
2018-01-23T15:36:30.744Z,15
2018-01-23T15:37:39.581Z,15
2018-01-23T15:38:48.686Z,15
2018-01-23T15:39:57.518Z,10
2018-01-23T15:41:06.500Z,10
2018-01-23T15:42:15.330Z,10
2018-01-23T15:43:24.162Z,10
2018-01-23T15:44:32.990Z,5
2018-01-23T15:45:41.823Z,5
2018-01-23T15:46:50.814Z,5
2018-01-23T15:47:59.639Z,5
2018-01-23T15:49:08.744Z,5
2018-01-23T15:50:17.577Z,0
2018-01-23T15:51:26.409Z,0
2018-01-23T15:52:35.489Z,0
2018-01-23T15:53:44.319Z,0
2018-01-23T15:54:53.151Z,0
2018-01-23T15:56:01.982Z,0
2018-01-23T15:57:10.815Z,0
2018-01-23T15:58:19.796Z,0
2018-01-23T15:59:28.901Z,0
2018-01-23T16:00:37.732Z,0
2018-01-23T16:01:46.564Z,0
2018-01-23T16:02:55.401Z,0
2018-01-23T16:04:04.282Z,0
2018-01-23T16:05:13.113Z,0
2018-01-23T16:06:21.944Z,0
2018-01-23T16:07:30.774Z,0
2018-01-23T16:08:39.607Z,0
2018-01-23T16:09:48.591Z,0
2018-01-23T16:10:57.422Z,0
2018-01-23T16:12:06.254Z,0
2018-01-23T16:13:15.134Z,0
2018-01-23T16:14:23.965Z,0
2018-01-23T16:15:32.797Z,0
2018-01-23T16:16:41.630Z,0
2018-01-23T16:17:50.459Z,0
2018-01-23T16:18:59.291Z,0
2018-01-23T16:20:08.121Z,0
2018-01-23T16:21:16.951Z,0
2018-01-23T16:22:25.782Z,0
2018-01-23T16:23:34.614Z,0
2018-01-23T16:24:43.445Z,0
2018-01-23T16:25:52.553Z,0
2018-01-23T16:27:01.439Z,0
2018-01-23T16:28:10.542Z,0